Time;durP1;ratioP1;P1;durP2;ratioP2;P2;SDS_P1;SDS_P2;PMS_P1;PMS_P2;Temp;Humidity;BMP_temperature;BMP_pressure;BME280_temperature;BME280_humidity;BME280_pressure;Samples;Min_cycle;Max_cycle;Signal;HPM_P1;HPM_P2
2023/04/30 00:02:24;;;;;;;;;;;;;;;7.08;69.04;100514.97;5065059;28;1756;-83
2023/04/30 00:05:16;;;;;;;;;;;;;;;7.07;69.21;100523.22;5060921;28;4890;-83
2023/04/30 00:08:08;;;;;;;;;;;;;;;7.06;69.14;100514.38;5073055;28;3253;-84
2023/04/30 00:11:00;;;;;;;;;;;;;;;7.05;69.47;100518.88;5064555;28;1575;-83
2023/04/30 00:13:52;;;;;;;;;;;;;;;7.04;69.47;100519.91;5069548;28;1914;-82
2023/04/30 00:16:45;;;;;;;;;;;;;;;7.04;69.36;100521.75;5061099;28;2404;-84
2023/04/30 00:19:36;;;;;;;;;;;;;;;7.04;69.40;100524.44;5065906;28;1742;-84
2023/04/30 00:22:29;;;;;;;;;;;;;;;7.05;68.95;100523.41;5065694;28;3984;-83
2023/04/30 00:25:23;;;;;;;;;;;;;;;7.12;68.50;100520.75;5064173;28;1910;-84
2023/04/30 00:28:15;;;;;;;;;;;;;;;7.03;69.05;100525.47;5066685;28;1611;-84
2023/04/30 00:31:08;;;;;;;;;;;;;;;7.04;68.83;100517.22;5063955;28;1873;-84
2023/04/30 00:34:00;;;;;;;;;;;;;;;7.02;69.03;100529.16;5066277;28;1848;-83
2023/04/30 00:36:51;;;;;;;;;;;;;;;7.13;68.28;100517.06;5068322;28;1742;-83
2023/04/30 00:39:44;;;;;;;;;;;;;;;7.01;68.65;100527.50;5063017;28;1677;-84
2023/04/30 00:42:35;;;;;;;;;;;;;;;7.02;68.54;100529.16;5065048;28;1667;-82
2023/04/30 00:45:28;;;;;;;;;;;;;;;7.07;68.78;100528.59;5063861;28;1961;-84
2023/04/30 00:48:20;;;;;;;;;;;;;;;7.04;68.57;100527.94;5062731;28;1575;-83
2023/04/30 00:51:11;;;;;;;;;;;;;;;6.93;68.92;100535.69;5064922;28;1631;-83
2023/04/30 00:54:04;;;;;;;;;;;;;;;6.91;68.56;100535.91;5062653;28;2324;-83
2023/04/30 00:56:55;;;;;;;;;;;;;;;7.00;68.28;100540.09;5063836;28;1753;-82
2023/04/30 00:59:47;;;;;;;;;;;;;;;6.94;68.35;100540.00;5063354;28;1694;-84
2023/04/30 01:02:40;;;;;;;;;;;;;;;6.87;68.30;100542.66;5064140;28;1825;-84
2023/04/30 01:05:32;;;;;;;;;;;;;;;7.03;68.04;100545.03;5063564;28;2008;-84
2023/04/30 01:08:23;;;;;;;;;;;;;;;7.01;68.26;100548.94;5056928;28;4286;-85
2023/04/30 01:11:16;;;;;;;;;;;;;;;6.87;68.69;100542.66;5079821;28;1790;-83
2023/04/30 01:14:08;;;;;;;;;;;;;;;6.89;68.36;100554.00;5062867;28;2092;-83
2023/04/30 01:17:00;;;;;;;;;;;;;;;6.98;67.95;100557.38;5076464;28;1592;-83
2023/04/30 01:19:51;;;;;;;;;;;;;;;6.99;68.09;100554.47;5065317;28;1586;-85
2023/04/30 01:22:44;;;;;;;;;;;;;;;7.18;67.39;100562.84;5064865;28;2167;-83
2023/04/30 01:25:35;;;;;;;;;;;;;;;6.94;67.87;100573.00;5060201;28;3932;-83
2023/04/30 01:28:27;;;;;;;;;;;;;;;6.89;67.91;100570.06;5062463;28;1623;-84
2023/04/30 01:31:18;;;;;;;;;;;;;;;6.90;68.34;100570.91;5059075;28;1582;-83
2023/04/30 01:34:11;;;;;;;;;;;;;;;6.79;68.61;100575.78;5061987;28;1586;-83
2023/04/30 01:37:02;;;;;;;;;;;;;;;6.88;68.21;100575.59;5061641;28;1764;-84
2023/04/30 01:39:55;;;;;;;;;;;;;;;6.77;68.76;100577.00;5062076;28;1595;-83
2023/04/30 01:42:46;;;;;;;;;;;;;;;6.81;68.49;100575.56;5063605;28;1682;-83
2023/04/30 01:45:39;;;;;;;;;;;;;;;6.83;68.29;100576.22;5061737;28;1965;-85
2023/04/30 01:48:31;;;;;;;;;;;;;;;6.79;68.45;100573.09;5062567;28;1622;-83
2023/04/30 01:51:23;;;;;;;;;;;;;;;6.81;68.32;100578.25;5059462;28;1927;-83
2023/04/30 01:54:15;;;;;;;;;;;;;;;6.72;68.56;100582.91;5064585;28;1985;-83
2023/04/30 01:57:07;;;;;;;;;;;;;;;6.83;68.04;100582.38;5061464;28;1690;-83
2023/04/30 01:59:59;;;;;;;;;;;;;;;6.88;68.07;100581.78;5060540;28;1820;-84
2023/04/30 02:02:50;;;;;;;;;;;;;;;6.85;67.85;100586.72;5060066;28;1888;-82
2023/04/30 02:05:43;;;;;;;;;;;;;;;6.81;68.19;100588.94;5064277;28;1961;-83
2023/04/30 02:08:35;;;;;;;;;;;;;;;6.73;68.14;100587.22;5060078;28;5037;-83
2023/04/30 02:11:27;;;;;;;;;;;;;;;6.72;68.25;100582.91;5061864;28;3202;-83
2023/04/30 02:14:19;;;;;;;;;;;;;;;6.96;67.40;100588.84;5059907;28;3198;-84
2023/04/30 02:17:11;;;;;;;;;;;;;;;6.87;67.82;100587.34;5059509;28;1798;-83
2023/04/30 02:20:03;;;;;;;;;;;;;;;6.99;67.57;100585.78;5062994;28;2187;-84
2023/04/30 02:22:54;;;;;;;;;;;;;;;6.89;67.57;100586.13;5060855;28;1651;-82
2023/04/30 02:25:46;;;;;;;;;;;;;;;6.73;67.82;100587.22;5066838;28;1947;-84
2023/04/30 02:28:38;;;;;;;;;;;;;;;6.74;68.12;100586.22;5063967;28;1683;-85
2023/04/30 02:31:31;;;;;;;;;;;;;;;6.72;68.06;100587.44;5060878;28;1622;-83
2023/04/30 02:34:22;;;;;;;;;;;;;;;6.80;67.97;100595.34;5063010;28;1900;-84
2023/04/30 02:37:15;;;;;;;;;;;;;;;6.82;67.87;100595.94;5060365;28;1828;-84
2023/04/30 02:40:07;;;;;;;;;;;;;;;6.69;67.93;100593.19;5069671;28;2261;-84
2023/04/30 02:43:00;;;;;;;;;;;;;;;6.67;67.58;100588.00;5064157;28;1646;-83
2023/04/30 02:45:51;;;;;;;;;;;;;;;6.65;67.77;100586.53;5058461;28;1910;-84
2023/04/30 02:48:42;;;;;;;;;;;;;;;6.66;67.95;100593.56;5060369;28;1851;-84
2023/04/30 02:51:35;;;;;;;;;;;;;;;6.58;68.36;100603.38;5061761;28;1618;-82
2023/04/30 02:54:26;;;;;;;;;;;;;;;6.78;67.74;100603.56;5060613;28;1789;-80
2023/04/30 02:57:18;;;;;;;;;;;;;;;6.61;68.15;100602.16;5058659;28;2126;-83
2023/04/30 03:00:11;;;;;;;;;;;;;;;6.54;68.30;100599.44;5057671;28;1829;-83
2023/04/30 03:03:03;;;;;;;;;;;;;;;6.63;67.98;100591.28;5056940;28;1851;-83
2023/04/30 03:05:58;;;;;;;;;;;;;;;6.54;67.85;100588.72;5066085;28;1967;-83
2023/04/30 03:08:49;;;;;;;;;;;;;;;6.55;67.93;100598.41;5064881;28;1648;-84
2023/04/30 03:11:41;;;;;;;;;;;;;;;6.58;68.04;100597.19;5075226;28;1581;-84
2023/04/30 03:14:34;;;;;;;;;;;;;;;6.50;68.35;100594.66;5072154;28;4440;-83
2023/04/30 03:17:26;;;;;;;;;;;;;;;6.46;68.38;100596.06;5065630;28;2201;-83
2023/04/30 03:20:18;;;;;;;;;;;;;;;6.56;67.99;100602.75;5070906;28;1587;-83
2023/04/30 03:23:09;;;;;;;;;;;;;;;6.51;67.90;100599.81;5058810;28;955;-83
2023/04/30 03:26:00;;;;;;;;;;;;;;;6.44;68.33;100600.78;5078922;28;1909;-83
2023/04/30 03:28:54;;;;;;;;;;;;;;;6.44;68.07;100601.63;5066844;28;1838;-83
2023/04/30 03:31:46;;;;;;;;;;;;;;;6.44;67.79;100604.28;5068752;28;1240;-82
2023/04/30 03:34:37;;;;;;;;;;;;;;;6.43;67.76;100613.31;5067627;28;1139;-81
2023/04/30 03:37:28;;;;;;;;;;;;;;;6.44;67.87;100611.47;5073068;28;1376;-82
2023/04/30 03:40:20;;;;;;;;;;;;;;;6.36;67.73;100617.78;5075257;28;1846;-82
2023/04/30 03:43:12;;;;;;;;;;;;;;;6.38;67.82;100610.38;5085297;28;1466;-83
2023/04/30 03:46:03;;;;;;;;;;;;;;;6.36;67.93;100612.44;5081399;28;2173;-83
2023/04/30 03:48:56;;;;;;;;;;;;;;;6.37;67.88;100608.72;5084065;28;1532;-84
2023/04/30 03:51:47;;;;;;;;;;;;;;;6.38;67.50;100618.41;5074078;28;1323;-83
2023/04/30 03:54:39;;;;;;;;;;;;;;;6.39;67.75;100624.63;5071011;28;1592;-83
2023/04/30 03:57:32;;;;;;;;;;;;;;;6.39;67.85;100613.91;5062699;28;1152;-83
2023/04/30 04:00:24;;;;;;;;;;;;;;;6.41;67.75;100617.19;5063993;28;1555;-83
2023/04/30 04:03:15;;;;;;;;;;;;;;;6.40;67.61;100627.09;5069851;28;1604;-82
2023/04/30 04:06:06;;;;;;;;;;;;;;;6.26;67.59;100625.28;5065762;28;2225;-83
2023/04/30 04:08:58;;;;;;;;;;;;;;;6.32;67.92;100627.19;5066656;28;1691;-84
2023/04/30 04:11:50;;;;;;;;;;;;;;;6.39;67.16;100632.63;5068292;28;1924;-83
2023/04/30 04:14:42;;;;;;;;;;;;;;;6.25;67.80;100635.16;5057689;28;1903;-84
2023/04/30 04:17:33;;;;;;;;;;;;;;;6.26;67.57;100638.66;5060248;28;2504;-83
2023/04/30 04:20:26;;;;;;;;;;;;;;;6.27;67.72;100643.00;5057797;28;1788;-84
2023/04/30 04:23:17;;;;;;;;;;;;;;;6.26;67.80;100642.16;5055935;28;5039;-85
2023/04/30 04:26:10;;;;;;;;;;;;;;;6.30;67.79;100645.31;5061157;28;1941;-84
2023/04/30 04:29:01;;;;;;;;;;;;;;;6.29;67.60;100644.44;5067003;28;3374;-83
2023/04/30 04:31:54;;;;;;;;;;;;;;;6.22;67.72;100651.59;5062050;28;1741;-83
2023/04/30 04:34:46;;;;;;;;;;;;;;;6.26;67.32;100644.81;5056535;28;2114;-86
2023/04/30 04:37:37;;;;;;;;;;;;;;;6.23;67.56;100658.59;5058144;28;1720;-84
2023/04/30 04:40:29;;;;;;;;;;;;;;;6.21;67.53;100654.47;5062161;28;3885;-85
2023/04/30 04:43:21;;;;;;;;;;;;;;;6.20;67.54;100652.78;5062526;28;1754;-84
2023/04/30 04:46:15;;;;;;;;;;;;;;;6.20;67.63;100650.94;5059090;28;1986;-83
2023/04/30 04:49:06;;;;;;;;;;;;;;;6.14;67.79;100652.50;5058562;28;1848;-84
2023/04/30 04:51:58;;;;;;;;;;;;;;;6.17;67.69;100650.50;5055335;28;1820;-84
2023/04/30 04:54:50;;;;;;;;;;;;;;;6.14;67.74;100660.53;5057516;28;1792;-84
2023/04/30 04:57:42;;;;;;;;;;;;;;;6.14;67.64;100659.72;5055740;28;1825;-84
2023/04/30 05:00:33;;;;;;;;;;;;;;;6.21;67.67;100663.31;5072905;28;1725;-85
2023/04/30 05:03:24;;;;;;;;;;;;;;;6.13;67.45;100669.59;5059599;28;1926;-84
2023/04/30 05:06:16;;;;;;;;;;;;;;;6.11;67.98;100668.13;5061931;28;1914;-86
2023/04/30 05:09:08;;;;;;;;;;;;;;;6.10;67.86;100669.97;5059073;28;1804;-84
2023/04/30 05:12:01;;;;;;;;;;;;;;;6.09;67.91;100676.34;5062979;28;1854;-85
2023/04/30 05:14:52;;;;;;;;;;;;;;;6.08;67.96;100669.31;5060527;28;2169;-86
2023/04/30 05:17:44;;;;;;;;;;;;;;;6.08;67.58;100676.50;5057425;28;2178;-86
2023/04/30 05:20:36;;;;;;;;;;;;;;;6.09;67.67;100680.88;5056763;28;1750;-86
2023/04/30 05:23:28;;;;;;;;;;;;;;;6.06;67.59;100689.22;5063252;28;1997;-86
2023/04/30 05:26:19;;;;;;;;;;;;;;;6.04;67.67;100683.25;5057594;28;4615;-87
2023/04/30 05:29:11;;;;;;;;;;;;;;;6.05;67.48;100693.75;5058546;28;3036;-85
2023/04/30 05:32:02;;;;;;;;;;;;;;;6.05;67.46;100688.41;5056667;28;2191;-86
2023/04/30 05:34:54;;;;;;;;;;;;;;;6.02;67.51;100691.44;5054374;28;2102;-87
2023/04/30 05:37:46;;;;;;;;;;;;;;;6.02;67.59;100691.44;5056286;28;2003;-87
2023/04/30 05:40:37;;;;;;;;;;;;;;;6.03;67.54;100686.94;5059468;28;1833;-86
2023/04/30 05:43:30;;;;;;;;;;;;;;;6.05;67.69;100698.28;5056035;28;1949;-86
2023/04/30 05:46:22;;;;;;;;;;;;;;;6.01;67.78;100687.13;5066755;28;1910;-86
2023/04/30 05:49:13;;;;;;;;;;;;;;;6.01;67.67;100694.34;5060921;28;1804;-89
2023/04/30 05:52:06;;;;;;;;;;;;;;;6.01;67.42;100702.34;5061626;28;1825;-87
2023/04/30 05:54:58;;;;;;;;;;;;;;;6.01;67.69;100707.69;5057433;28;1931;-88
2023/04/30 05:57:49;;;;;;;;;;;;;;;5.99;67.32;100702.53;5059268;28;1852;-87
2023/04/30 06:00:41;;;;;;;;;;;;;;;5.96;67.34;100710.09;5061742;28;1845;-87
2023/04/30 06:03:33;;;;;;;;;;;;;;;5.96;67.35;100710.91;5058726;28;1872;-88
2023/04/30 06:06:25;;;;;;;;;;;;;;;5.97;67.42;100709.91;5055094;28;2027;-88
2023/04/30 06:09:17;;;;;;;;;;;;;;;5.97;67.34;100712.59;5056967;28;1732;-87
2023/04/30 06:12:08;;;;;;;;;;;;;;;5.98;67.28;100716.91;5058980;28;1849;-84
2023/04/30 06:15:00;;;;;;;;;;;;;;;5.97;67.27;100712.59;5059077;28;1807;-89
2023/04/30 06:17:52;;;;;;;;;;;;;;;5.96;67.52;100715.44;5063588;28;1904;-88
2023/04/30 06:20:44;;;;;;;;;;;;;;;5.96;67.24;100718.13;5064567;28;1863;-88
2023/04/30 06:23:36;;;;;;;;;;;;;;;5.97;67.25;100719.75;5055116;28;1860;-87
2023/04/30 06:26:27;;;;;;;;;;;;;;;5.97;67.18;100725.97;5056145;28;2150;-90
2023/04/30 06:29:19;;;;;;;;;;;;;;;5.94;67.29;100726.31;5050008;28;4354;-91
2023/04/30 06:32:11;;;;;;;;;;;;;;;5.96;67.21;100724.28;5051731;28;2415;-89
2023/04/30 06:35:02;;;;;;;;;;;;;;;5.95;67.42;100738.69;5056870;28;2378;-91
2023/04/30 06:37:54;;;;;;;;;;;;;;;5.94;67.13;100731.66;5062680;28;2624;-90
2023/04/30 06:40:46;;;;;;;;;;;;;;;5.92;67.27;100734.50;5054731;28;2428;-90
2023/04/30 06:43:38;;;;;;;;;;;;;;;5.92;67.20;100733.66;5053770;28;2795;-91
2023/04/30 06:46:30;;;;;;;;;;;;;;;5.99;66.92;100731.13;5070832;28;1914;-89
2023/04/30 06:49:22;;;;;;;;;;;;;;;5.94;66.98;100733.50;5071031;28;993;-88
2023/04/30 06:52:14;;;;;;;;;;;;;;;5.91;66.86;100735.53;5068137;28;2205;-90
2023/04/30 06:55:05;;;;;;;;;;;;;;;5.94;67.09;100726.31;5060259;28;2571;-90
2023/04/30 06:57:58;;;;;;;;;;;;;;;5.92;66.86;100734.50;5056200;28;2335;-92
2023/04/30 07:00:50;;;;;;;;;;;;;;;5.93;66.72;100732.69;5053765;28;2295;-90
2023/04/30 07:03:42;;;;;;;;;;;;;;;5.93;66.43;100732.69;5055749;28;2285;-90
2023/04/30 07:06:34;;;;;;;;;;;;;;;5.94;66.64;100734.31;5055855;28;2931;-91
2023/04/30 07:09:26;;;;;;;;;;;;;;;5.91;66.87;100732.00;5054443;28;2272;-91
2023/04/30 07:12:18;;;;;;;;;;;;;;;5.90;66.77;100736.50;5060121;28;2319;-91
2023/04/30 07:15:10;;;;;;;;;;;;;;;5.94;66.38;100739.66;5055887;28;2237;-90
2023/04/30 07:18:02;;;;;;;;;;;;;;;5.92;66.52;100739.00;5062105;28;2700;-92
2023/04/30 07:20:54;;;;;;;;;;;;;;;5.88;66.45;100743.91;5055747;28;2286;-92
2023/04/30 07:23:47;;;;;;;;;;;;;;;5.90;66.55;100741.84;5063919;28;2604;-91
2023/04/30 07:26:38;;;;;;;;;;;;;;;5.93;66.59;100740.69;5060039;28;2238;-92
2023/04/30 07:29:30;;;;;;;;;;;;;;;5.89;66.50;100739.38;5060859;28;2671;-90
2023/04/30 07:32:21;;;;;;;;;;;;;;;5.89;66.60;100748.22;5054195;28;2214;-91
2023/04/30 07:35:13;;;;;;;;;;;;;;;5.91;66.33;100742.69;5052077;28;4387;-90
2023/04/30 07:38:05;;;;;;;;;;;;;;;5.92;66.39;100745.19;5061872;28;3101;-89
2023/04/30 07:40:56;;;;;;;;;;;;;;;5.93;66.45;100743.38;5067868;28;2562;-90
2023/04/30 07:43:48;;;;;;;;;;;;;;;5.91;66.66;100748.88;5057653;28;2564;-91
2023/04/30 07:46:40;;;;;;;;;;;;;;;5.92;66.31;100755.88;5062983;28;2362;-91
2023/04/30 07:49:32;;;;;;;;;;;;;;;5.92;66.23;100760.41;5056262;28;2327;-91
2023/04/30 07:52:24;;;;;;;;;;;;;;;5.92;66.48;100753.22;5059475;28;3380;-91
2023/04/30 07:55:16;;;;;;;;;;;;;;;5.90;66.41;100760.56;5059938;28;2187;-90
2023/04/30 07:58:08;;;;;;;;;;;;;;;5.90;66.49;100765.09;5062362;28;2211;-92
2023/04/30 08:01:00;;;;;;;;;;;;;;;5.92;66.37;100760.41;5066315;28;2155;-91
2023/04/30 08:03:52;;;;;;;;;;;;;;;5.90;66.59;100765.91;5061700;28;2129;-90
2023/04/30 08:06:44;;;;;;;;;;;;;;;5.89;66.35;100769.63;5062084;28;2134;-91
2023/04/30 08:09:36;;;;;;;;;;;;;;;5.89;66.48;100777.63;5058284;28;2158;-90
2023/04/30 08:12:28;;;;;;;;;;;;;;;5.89;66.47;100769.63;5059021;28;2086;-92
2023/04/30 08:15:20;;;;;;;;;;;;;;;5.91;66.61;100769.41;5068681;28;2210;-90
2023/04/30 08:18:11;;;;;;;;;;;;;;;5.91;66.24;100774.75;5058337;28;2614;-91
2023/04/30 08:21:03;;;;;;;;;;;;;;;5.90;66.47;100757.91;5057590;28;2210;-89
2023/04/30 08:23:56;;;;;;;;;;;;;;;5.93;66.36;100770.09;5054944;28;2193;-89
2023/04/30 08:26:48;;;;;;;;;;;;;;;5.94;66.52;100768.25;5054507;28;2117;-90
2023/04/30 08:29:40;;;;;;;;;;;;;;;5.92;66.35;100760.41;5062344;28;2110;-89
2023/04/30 08:32:32;;;;;;;;;;;;;;;5.94;66.60;100765.59;5054923;28;2463;-88
2023/04/30 08:35:24;;;;;;;;;;;;;;;5.94;66.30;100769.09;5054317;28;2106;-89
2023/04/30 08:38:16;;;;;;;;;;;;;;;5.95;66.69;100765.41;5063708;28;2140;-89
2023/04/30 08:41:07;;;;;;;;;;;;;;;5.96;66.60;100769.72;5066419;28;1601;-90
2023/04/30 08:43:58;;;;;;;;;;;;;;;5.97;66.66;100762.53;5061077;28;4985;-90
2023/04/30 08:46:50;;;;;;;;;;;;;;;5.96;66.27;100755.53;5056949;28;2647;-88
2023/04/30 08:49:42;;;;;;;;;;;;;;;5.97;66.52;100755.38;5048268;28;3213;-91
2023/04/30 08:52:34;;;;;;;;;;;;;;;5.98;66.46;100765.03;5053347;28;2098;-90
2023/04/30 08:55:26;;;;;;;;;;;;;;;5.98;66.19;100767.72;5057981;28;2218;-89
2023/04/30 08:58:18;;;;;;;;;;;;;;;6.00;66.16;100762.16;5065183;28;2349;-89
2023/04/30 09:01:09;;;;;;;;;;;;;;;6.00;66.23;100759.50;5053614;28;3281;-90
2023/04/30 09:04:02;;;;;;;;;;;;;;;6.00;66.34;100765.69;5050710;28;2174;-89
2023/04/30 09:06:57;;;;;;;;;;;;;;;6.02;66.55;100779.69;5049987;28;2118;-89
2023/04/30 09:09:49;;;;;;;;;;;;;;;6.03;66.54;100768.00;5054255;28;3141;-90
2023/04/30 09:12:42;;;;;;;;;;;;;;;6.03;66.53;100762.66;5071438;28;2004;-88
2023/04/30 09:15:34;;;;;;;;;;;;;;;6.04;66.38;100772.31;5067536;28;1838;-90
2023/04/30 09:18:26;;;;;;;;;;;;;;;6.04;65.90;100779.53;5065870;28;1953;-89
2023/04/30 09:21:18;;;;;;;;;;;;;;;6.01;65.32;100777.22;5071462;28;1001;-87
2023/04/30 09:24:10;;;;;;;;;;;;;;;6.05;65.99;100775.81;5076317;28;989;-89
2023/04/30 09:27:02;;;;;;;;;;;;;;;6.05;65.98;100781.16;5063013;28;1914;-89
2023/04/30 09:29:53;;;;;;;;;;;;;;;6.05;66.25;100773.16;5072798;28;2067;-90
2023/04/30 09:32:45;;;;;;;;;;;;;;;6.05;66.45;100773.97;5070731;28;2017;-89
2023/04/30 09:35:37;;;;;;;;;;;;;;;6.11;66.05;100777.75;5067608;28;1271;-88
2023/04/30 09:38:28;;;;;;;;;;;;;;;6.09;65.87;100777.97;5064327;28;1990;-88
2023/04/30 09:41:20;;;;;;;;;;;;;;;6.14;65.68;100788.09;5070001;28;1571;-88
2023/04/30 09:44:12;;;;;;;;;;;;;;;6.09;66.05;100782.47;5069378;28;3587;-89
2023/04/30 09:47:04;;;;;;;;;;;;;;;6.08;66.45;100776.28;5067640;28;2532;-88
2023/04/30 09:49:56;;;;;;;;;;;;;;;6.08;66.41;100772.78;5061573;28;4431;-88
2023/04/30 09:52:48;;;;;;;;;;;;;;;6.12;66.40;100776.75;5063284;28;2345;-87
2023/04/30 09:55:40;;;;;;;;;;;;;;;6.08;66.04;100781.63;5066217;28;2059;-86
2023/04/30 09:58:32;;;;;;;;;;;;;;;6.10;66.76;100776.94;5061611;28;2372;-87
2023/04/30 10:01:25;;;;;;;;;;;;;;;6.10;66.22;100774.25;5062664;28;2419;-88
2023/04/30 10:04:17;;;;;;;;;;;;;;;6.11;66.35;100775.09;5062754;28;2031;-87
2023/04/30 10:07:09;;;;;;;;;;;;;;;6.12;66.46;100772.25;5061220;28;2844;-88
2023/04/30 10:10:01;;;;;;;;;;;;;;;6.13;66.34;100770.38;5064678;28;2226;-88
2023/04/30 10:12:53;;;;;;;;;;;;;;;6.12;66.25;100772.25;5073392;28;1992;-87
2023/04/30 10:15:45;;;;;;;;;;;;;;;6.13;65.79;100770.38;5061321;28;2682;-86
2023/04/30 10:18:37;;;;;;;;;;;;;;;6.14;65.89;100774.72;5064856;28;2122;-85
2023/04/30 10:21:29;;;;;;;;;;;;;;;6.14;66.15;100772.84;5067101;28;1960;-87
2023/04/30 10:24:21;;;;;;;;;;;;;;;6.13;66.21;100767.72;5071767;28;2115;-88
2023/04/30 10:27:13;;;;;;;;;;;;;;;6.15;66.33;100763.00;5065202;28;2114;-85
2023/04/30 10:30:05;;;;;;;;;;;;;;;6.17;66.38;100768.16;5058454;28;2115;-86
2023/04/30 10:32:57;;;;;;;;;;;;;;;6.16;65.28;100780.72;5058930;28;1968;-87
2023/04/30 10:35:49;;;;;;;;;;;;;;;6.17;66.04;100769.00;5059806;28;2088;-87
2023/04/30 10:38:41;;;;;;;;;;;;;;;6.19;66.13;100763.47;5058998;28;2580;-88
2023/04/30 10:41:33;;;;;;;;;;;;;;;6.19;66.22;100766.16;5048907;28;2769;-88
2023/04/30 10:44:25;;;;;;;;;;;;;;;6.21;66.36;100764.13;5049809;28;2347;-87
2023/04/30 10:47:18;;;;;;;;;;;;;;;6.21;66.32;100748.91;5048946;28;2598;-87
2023/04/30 10:50:10;;;;;;;;;;;;;;;6.20;66.20;100760.59;5047130;28;4569;-88
2023/04/30 10:53:02;;;;;;;;;;;;;;;6.22;65.58;100757.75;5068001;28;3066;-87
2023/04/30 10:55:54;;;;;;;;;;;;;;;6.23;66.32;100757.53;5056925;28;2530;-88
2023/04/30 10:58:46;;;;;;;;;;;;;;;6.25;66.10;100762.72;5064583;28;2138;-86
2023/04/30 11:01:38;;;;;;;;;;;;;;;6.26;66.55;100751.81;5065069;28;2237;-87
2023/04/30 11:04:30;;;;;;;;;;;;;;;6.27;66.35;100755.34;5070212;28;2447;-87
2023/04/30 11:07:22;;;;;;;;;;;;;;;6.27;66.47;100760.69;5064765;28;2280;-87
2023/04/30 11:10:14;;;;;;;;;;;;;;;6.29;65.90;100759.47;5069474;28;2316;-87
2023/04/30 11:13:06;;;;;;;;;;;;;;;6.30;66.39;100763.81;5069549;28;2142;-85
2023/04/30 11:15:58;;;;;;;;;;;;;;;6.29;65.39;100756.78;5067631;28;2146;-86
2023/04/30 11:19:00;;;;;;;;;;;;;;;6.32;65.46;100760.94;5065751;28;2210;-86
2023/04/30 11:21:53;;;;;;;;;;;;;;;6.33;64.80;100757.28;5063341;28;2292;-87
2023/04/30 11:24:45;;;;;;;;;;;;;;;6.33;65.52;100758.09;5067065;28;2264;-87
2023/04/30 11:27:37;;;;;;;;;;;;;;;6.35;65.46;100755.22;5069280;28;2173;-87
2023/04/30 11:30:29;;;;;;;;;;;;;;;6.36;65.57;100767.59;5069506;28;2363;-85
2023/04/30 11:33:21;;;;;;;;;;;;;;;6.35;64.23;100756.06;5067809;28;2222;-85
2023/04/30 11:36:13;;;;;;;;;;;;;;;6.37;64.67;100761.22;5070683;28;2260;-87
2023/04/30 11:39:06;;;;;;;;;;;;;;;6.39;65.18;100750.34;5064106;28;2273;-85
2023/04/30 11:41:58;;;;;;;;;;;;;;;6.39;65.47;100737.81;5069332;28;2222;-86
2023/04/30 11:44:50;;;;;;;;;;;;;;;6.40;64.88;100760.03;5070730;28;2419;-88
2023/04/30 11:47:42;;;;;;;;;;;;;;;6.42;64.21;100758.00;5053920;28;2187;-88
2023/04/30 11:50:34;;;;;;;;;;;;;;;6.42;64.42;100763.34;5051346;28;2065;-87
2023/04/30 11:53:26;;;;;;;;;;;;;;;6.44;64.31;100758.63;5065531;28;2252;-86
2023/04/30 11:56:18;;;;;;;;;;;;;;;6.45;64.82;100747.75;5061752;28;2224;-85
2023/04/30 11:59:11;;;;;;;;;;;;;;;6.46;64.37;100752.06;5061149;28;3510;-87
2023/04/30 12:02:03;;;;;;;;;;;;;;;6.47;63.87;100755.56;5068414;28;2118;-85
2023/04/30 12:04:55;;;;;;;;;;;;;;;6.47;61.79;100747.53;5069287;28;1580;-86
2023/04/30 12:07:47;;;;;;;;;;;;;;;6.48;62.92;100751.91;5068888;28;1981;-85
2023/04/30 12:10:39;;;;;;;;;;;;;;;6.49;63.75;100762.41;5076496;28;1119;-85
2023/04/30 12:13:31;;;;;;;;;;;;;;;6.50;62.38;100739.13;5074774;28;1547;-85
2023/04/30 12:16:23;;;;;;;;;;;;;;;6.50;62.28;100745.34;5075132;28;1559;-85
2023/04/30 12:19:15;;;;;;;;;;;;;;;6.52;62.24;100747.81;5077005;28;1104;-86
2023/04/30 12:22:06;;;;;;;;;;;;;;;6.53;62.55;100736.94;5068497;28;1382;-86
2023/04/30 12:24:58;;;;;;;;;;;;;;;6.55;63.70;100736.72;5069508;28;1547;-85
2023/04/30 12:27:49;;;;;;;;;;;;;;;6.57;63.93;100735.53;5070850;28;1914;-85
2023/04/30 12:30:40;;;;;;;;;;;;;;;6.59;65.31;100735.34;5080676;28;1510;-86
2023/04/30 12:33:32;;;;;;;;;;;;;;;6.62;64.64;100740.34;5067807;28;1581;-83
2023/04/30 12:36:23;;;;;;;;;;;;;;;6.62;65.02;100742.16;5072128;28;1037;-86
2023/04/30 12:39:16;;;;;;;;;;;;;;;6.63;64.05;100738.47;5072801;28;2207;-85
2023/04/30 12:42:09;;;;;;;;;;;;;;;6.63;64.32;100744.66;5061965;28;2308;-86
2023/04/30 12:45:00;;;;;;;;;;;;;;;6.64;63.29;100743.63;5064804;28;1807;-85
2023/04/30 12:47:52;;;;;;;;;;;;;;;6.65;62.79;100745.31;5075575;28;1967;-85
2023/04/30 12:50:44;;;;;;;;;;;;;;;6.68;62.55;100744.09;5068614;28;2051;-86
2023/04/30 12:53:36;;;;;;;;;;;;;;;6.69;63.31;100730.50;5068192;28;1718;-86
2023/04/30 12:56:28;;;;;;;;;;;;;;;6.71;63.57;100735.69;5071666;28;1529;-84
2023/04/30 12:59:20;;;;;;;;;;;;;;;6.71;62.79;100749.91;5033842;28;30053;-85
2023/04/30 13:02:13;;;;;;;;;;;;;;;6.73;62.96;100736.31;5050911;28;2242;-83
2023/04/30 13:05:05;;;;;;;;;;;;;;;6.76;63.80;100735.94;5054825;28;4294;-84
2023/04/30 13:07:57;;;;;;;;;;;;;;;6.78;64.53;100729.38;5056016;28;2505;-86
2023/04/30 13:10:49;;;;;;;;;;;;;;;6.79;64.46;100736.41;5060659;28;2560;-84
2023/04/30 13:13:41;;;;;;;;;;;;;;;6.80;63.50;100742.56;5062964;28;2094;-84
2023/04/30 13:16:33;;;;;;;;;;;;;;;6.83;63.79;100747.56;5068417;28;1697;-84
2023/04/30 13:19:25;;;;;;;;;;;;;;;6.83;63.96;100745.69;5067162;28;1740;-85
2023/04/30 13:22:16;;;;;;;;;;;;;;;6.86;64.17;100746.34;5064010;28;3505;-84
2023/04/30 13:25:08;;;;;;;;;;;;;;;6.88;64.71;100753.13;5070968;28;1108;-85
2023/04/30 13:28:00;;;;;;;;;;;;;;;6.90;65.14;100743.09;5066008;28;1957;-85
2023/04/30 13:30:52;;;;;;;;;;;;;;;6.91;65.61;100744.75;5069214;28;1964;-84
2023/04/30 13:33:44;;;;;;;;;;;;;;;6.93;65.74;100750.72;5080104;28;974;-84
2023/04/30 13:36:36;;;;;;;;;;;;;;;6.95;65.09;100747.88;5060972;28;1006;-83
2023/04/30 13:39:28;;;;;;;;;;;;;;;6.95;64.56;100740.66;5075240;28;2522;-85
2023/04/30 13:42:20;;;;;;;;;;;;;;;6.98;64.96;100740.28;5069368;28;1989;-85
2023/04/30 13:45:12;;;;;;;;;;;;;;;7.00;65.51;100738.25;5078723;28;1555;-85
2023/04/30 13:48:04;;;;;;;;;;;;;;;7.02;64.95;100744.22;5069510;28;1898;-84
2023/04/30 13:50:56;;;;;;;;;;;;;;;7.03;64.82;100737.88;5063552;28;1988;-85
2023/04/30 13:53:48;;;;;;;;;;;;;;;7.06;65.88;100747.38;5072352;28;1539;-84
2023/04/30 13:56:41;;;;;;;;;;;;;;;7.08;65.67;100742.63;5064784;28;1594;-83
2023/04/30 13:59:33;;;;;;;;;;;;;;;7.10;65.76;100742.44;5065961;28;1935;-84
2023/04/30 14:02:25;;;;;;;;;;;;;;;7.11;66.03;100747.59;5068066;28;2203;-84
2023/04/30 14:05:17;;;;;;;;;;;;;;;7.13;66.02;100745.56;5059467;28;4968;-85
2023/04/30 14:08:09;;;;;;;;;;;;;;;7.15;65.74;100740.03;5060265;28;4154;-85
2023/04/30 14:11:01;;;;;;;;;;;;;;;7.17;65.96;100737.97;5064411;28;2304;-86
2023/04/30 14:13:54;;;;;;;;;;;;;;;7.19;65.87;100741.28;5063616;28;2132;-85
2023/04/30 14:16:46;;;;;;;;;;;;;;;7.20;65.98;100727.69;5065785;28;1563;-82
2023/04/30 14:19:38;;;;;;;;;;;;;;;7.21;65.81;100734.72;5064487;28;2139;-83
2023/04/30 14:22:33;;;;;;;;;;;;;;;7.24;65.64;100728.97;5061329;28;991;-82
2023/04/30 14:25:25;;;;;;;;;;;;;;;7.25;65.62;100725.28;5063527;28;3701;-83
2023/04/30 14:28:17;;;;;;;;;;;;;;;7.27;64.55;100722.41;5059930;28;2158;-83
2023/04/30 14:31:09;;;;;;;;;;;;;;;7.30;65.22;100732.75;5073350;28;1448;-83
2023/04/30 14:34:01;;;;;;;;;;;;;;;7.32;64.88;100735.22;5071297;28;1002;-84
2023/04/30 14:36:53;;;;;;;;;;;;;;;7.34;64.64;100735.84;5089397;28;1724;-83
2023/04/30 14:39:45;;;;;;;;;;;;;;;7.35;64.53;100735.66;5068561;28;2103;-83
2023/04/30 14:42:37;;;;;;;;;;;;;;;7.37;64.76;100733.59;5067720;28;1389;-82
2023/04/30 14:45:29;;;;;;;;;;;;;;;7.39;64.97;100739.59;5064718;28;1650;-83
2023/04/30 14:48:21;;;;;;;;;;;;;;;7.40;65.22;100743.94;5067609;28;1973;-84
2023/04/30 14:51:13;;;;;;;;;;;;;;;7.42;65.17;100741.06;5071058;28;1093;-84
2023/04/30 14:54:05;;;;;;;;;;;;;;;7.44;65.59;100741.69;5060460;28;4789;-84
2023/04/30 14:56:57;;;;;;;;;;;;;;;7.45;64.96;100743.38;5063819;28;2000;-84
2023/04/30 14:59:49;;;;;;;;;;;;;;;7.47;64.73;100746.66;5074722;28;4202;-84
2023/04/30 15:02:40;;;;;;;;;;;;;;;7.49;64.60;100741.94;5062187;28;1564;-86
2023/04/30 15:05:32;;;;;;;;;;;;;;;7.50;65.02;100748.97;5055477;28;1328;-84
2023/04/30 15:08:24;;;;;;;;;;;;;;;7.51;64.61;100753.31;5063697;28;2111;-82